Terminal Aerodrome Forecast
Issued by NWS

Current Version | Previous Version | Graphics & Text | Print | Product List | Glossary On
Versions: 1 2 3 4 5 6 7 8 9 10 11 12 13 14 15 16 17 18 19 20 21 22 23 24 25 26 27
000
FTUS41 KILN 170544
TAFLUK
TAF
KLUK 170544Z 1706/1806 VRB03KT 3SM BR VCSH OVC050
      TEMPO 1706/1709 2SM -SHRA BR OVC012
     FM170900 17008KT 2SM -SHRA BR VCTS OVC012CB
     FM171200 20010KT 5SM -SHRA BR OVC008
     FM171500 21012KT P6SM OVC015
     FM171800 25012G20KT P6SM OVC025
     FM180000 26012G16KT P6SM OVC015=

USA.gov is the U.S. government's official web portal to all federal, state and local government web resources and services.